createdAt,value
2023-05-21T00:01:45.262Z,101493.13
2023-05-21T00:04:12.651Z,101488.88
2023-05-21T00:06:39.707Z,101495.14
2023-05-21T00:09:07.539Z,101495.05
2023-05-21T00:11:34.659Z,101493.75
2023-05-21T00:14:01.817Z,101498.80
2023-05-21T00:16:28.975Z,101496.23
2023-05-21T00:18:57.683Z,101499.50
2023-05-21T00:21:25.972Z,101496.45
2023-05-21T00:23:53.894Z,101499.55
2023-05-21T00:26:21.371Z,101494.76
2023-05-21T00:28:48.666Z,101494.65
2023-05-21T00:31:16.841Z,101495.76
2023-05-21T00:33:44.522Z,101495.99
2023-05-21T00:36:14.087Z,101490.95
2023-05-21T00:38:43.363Z,101490.83
2023-05-21T00:41:10.780Z,101489.98
2023-05-21T00:43:41.645Z,101486.85
2023-05-21T00:49:53.500Z,101489.64
2023-05-21T00:52:23.330Z,101496.23
2023-05-21T00:54:53.009Z,101494.35
2023-05-21T00:57:25.747Z,101496.09
2023-05-21T00:59:54.832Z,101493.48
2023-05-21T01:02:24.636Z,101490.19
2023-05-21T01:04:56.460Z,101487.77
2023-05-21T01:07:25.349Z,101487.27
2023-05-21T01:09:58.697Z,101485.41
2023-05-21T01:12:31.956Z,101488.09
2023-05-21T01:15:03.186Z,101486.90
2023-05-21T01:17:34.878Z,101492.35
2023-05-21T01:20:12.804Z,101487.31
2023-05-21T01:22:50.319Z,101482.25
2023-05-21T01:25:18.867Z,101481.39
2023-05-21T01:27:48.286Z,101479.13
2023-05-21T01:30:19.814Z,101479.45
2023-05-21T01:33:02.652Z,101481.73
2023-05-21T01:35:44.551Z,101481.77
2023-05-21T01:38:28.619Z,101480.02
2023-05-21T01:41:06.302Z,101480.18
2023-05-21T01:43:39.833Z,101478.10
2023-05-21T01:46:19.096Z,101481.13
2023-05-21T01:48:49.372Z,101480.65
2023-05-21T01:51:18.278Z,101480.85
2023-05-21T01:53:46.676Z,101480.69
2023-05-21T01:56:16.203Z,101480.18
2023-05-21T01:58:48.725Z,101479.70
2023-05-21T02:01:20.486Z,101480.95
2023-05-21T02:03:48.978Z,101480.44
2023-05-21T02:06:17.801Z,101483.65
2023-05-21T02:08:46.564Z,101480.73
2023-05-21T02:11:16.046Z,101484.48
2023-05-21T02:13:46.403Z,101483.14
2023-05-21T02:16:16.696Z,101479.73
2023-05-21T02:18:45.072Z,101479.61
2023-05-21T02:21:13.644Z,101479.27
2023-05-21T02:23:42.940Z,101479.86
2023-05-21T02:26:11.364Z,101482.15
2023-05-21T02:28:40.775Z,101480.23
2023-05-21T02:31:09.162Z,101481.11
2023-05-21T02:33:39.952Z,101481.48
2023-05-21T02:36:13.321Z,101477.64
2023-05-21T02:38:44.714Z,101475.89
2023-05-21T02:41:13.054Z,101478.02
2023-05-21T02:43:41.533Z,101477.86
2023-05-21T02:46:10.088Z,101483.98
2023-05-21T02:48:38.655Z,101489.56
2023-05-21T02:51:10.158Z,101495.33
2023-05-21T02:53:39.770Z,101498.48
2023-05-21T02:56:08.174Z,101504.42
2023-05-21T02:58:36.764Z,101496.70
2023-05-21T03:01:05.312Z,101500.90
2023-05-21T03:03:33.946Z,101503.00
2023-05-21T03:06:02.629Z,101501.76
2023-05-21T03:09:11.188Z,101504.91
2023-05-21T03:11:39.650Z,101503.19
2023-05-21T03:14:08.069Z,101494.92
2023-05-21T03:16:36.507Z,101489.63
2023-05-21T03:19:04.950Z,101486.45
2023-05-21T03:21:33.991Z,101485.89
2023-05-21T03:24:06.132Z,101486.37
2023-05-21T03:26:34.550Z,101491.61
2023-05-21T03:29:02.877Z,101492.48
2023-05-21T03:31:31.592Z,101496.69
2023-05-21T03:34:08.741Z,101495.85
2023-05-21T03:36:37.073Z,101496.73
2023-05-21T03:39:05.668Z,101498.80
2023-05-21T03:41:35.043Z,101498.09
2023-05-21T03:44:08.526Z,101500.85
2023-05-21T03:46:50.436Z,101503.77
2023-05-21T03:49:23.256Z,101506.16
2023-05-21T03:51:52.654Z,101507.31
2023-05-21T03:54:21.635Z,101509.55
2023-05-21T03:56:51.689Z,101514.73
2023-05-21T03:59:21.051Z,101515.55
2023-05-21T04:01:49.520Z,101510.06
2023-05-21T04:04:18.497Z,101510.17
2023-05-21T04:06:46.934Z,101512.19
2023-05-21T04:09:15.391Z,101512.27
2023-05-21T04:11:44.235Z,101514.79
2023-05-21T04:14:13.032Z,101512.60
2023-05-21T04:16:44.259Z,101511.80
2023-05-21T04:19:12.823Z,101511.31
2023-05-21T04:21:42.287Z,101513.79
2023-05-21T04:24:12.008Z,101512.05
2023-05-21T04:27:01.768Z,101508.13
2023-05-21T04:29:32.058Z,101510.06
2023-05-21T04:32:00.597Z,101512.15
2023-05-21T04:34:34.306Z,101508.67
2023-05-21T04:37:03.040Z,101506.45
2023-05-21T04:39:31.820Z,101511.91
2023-05-21T04:42:00.367Z,101509.46
2023-05-21T04:44:29.477Z,101509.70
2023-05-21T04:46:59.140Z,101507.68
2023-05-21T04:49:28.052Z,101504.41
2023-05-21T04:51:57.345Z,101503.45
2023-05-21T04:54:25.946Z,101503.91
2023-05-21T04:56:55.243Z,101502.29
2023-05-21T04:59:24.079Z,101504.51
2023-05-21T05:01:53.012Z,101506.00
2023-05-21T05:04:24.271Z,101503.48
2023-05-21T05:06:53.153Z,101501.63
2023-05-21T05:09:25.339Z,101498.61
2023-05-21T05:11:54.424Z,101496.74
2023-05-21T05:14:22.899Z,101496.63
2023-05-21T05:16:52.320Z,101495.99
2023-05-21T05:19:21.444Z,101497.81
2023-05-21T05:21:49.985Z,101496.50
2023-05-21T05:24:19.006Z,101500.20
2023-05-21T05:26:48.171Z,101501.13
2023-05-21T05:29:16.660Z,101504.05
2023-05-21T05:31:45.384Z,101499.08
2023-05-21T05:34:14.626Z,101494.45
2023-05-21T05:36:44.339Z,101492.99
2023-05-21T05:39:12.782Z,101485.01
2023-05-21T05:41:41.746Z,101489.08
2023-05-21T05:44:10.988Z,101486.63
2023-05-21T05:46:39.871Z,101490.88
2023-05-21T05:49:08.727Z,101491.30
2023-05-21T05:51:37.578Z,101491.62
2023-05-21T05:54:06.365Z,101488.70
2023-05-21T05:56:35.381Z,101488.43
2023-05-21T05:59:06.408Z,101481.70
2023-05-21T06:01:37.140Z,101482.70
2023-05-21T06:04:06.428Z,101484.53
2023-05-21T06:06:35.240Z,101487.30
2023-05-21T06:09:05.144Z,101483.82
2023-05-21T06:11:33.973Z,101487.34
2023-05-21T06:14:02.708Z,101482.53
2023-05-21T06:16:32.018Z,101482.45
2023-05-21T06:19:00.759Z,101481.91
2023-05-21T06:21:29.504Z,101482.14
2023-05-21T06:23:58.813Z,101478.50
2023-05-21T06:26:27.469Z,101473.41
2023-05-21T06:28:56.903Z,101474.16
2023-05-21T06:31:32.736Z,101473.45
2023-05-21T06:34:01.623Z,101473.48
2023-05-21T06:36:32.871Z,101468.70
2023-05-21T06:39:01.453Z,101468.23
2023-05-21T06:41:30.343Z,101471.91
2023-05-21T06:44:01.740Z,101468.69
2023-05-21T06:46:49.015Z,101467.58
2023-05-21T06:49:17.746Z,101470.65
2023-05-21T06:51:46.484Z,101468.43
2023-05-21T06:54:15.269Z,101463.25
2023-05-21T06:56:44.192Z,101462.52
2023-05-21T06:59:13.055Z,101458.76
2023-05-21T07:01:44.819Z,101456.86
2023-05-21T07:04:15.030Z,101442.86
2023-05-21T07:06:44.752Z,101442.78
2023-05-21T07:09:13.327Z,101441.36
2023-05-21T07:11:42.116Z,101437.23
2023-05-21T07:14:11.118Z,101432.48
2023-05-21T07:16:40.310Z,101429.11
2023-05-21T07:19:09.992Z,101425.52
2023-05-21T07:21:39.032Z,101428.63
2023-05-21T07:24:09.833Z,101432.55
2023-05-21T07:26:40.806Z,101430.40
2023-05-21T07:29:09.784Z,101431.70
2023-05-21T07:31:38.423Z,101429.28
2023-05-21T07:34:07.676Z,101420.06
2023-05-21T07:36:36.286Z,101420.29
2023-05-21T07:39:05.267Z,101421.86
2023-05-21T07:41:37.718Z,101417.83
2023-05-21T07:44:10.022Z,101425.91
2023-05-21T07:46:41.964Z,101428.04
2023-05-21T07:49:17.043Z,101430.13
2023-05-21T07:51:49.862Z,101430.17
2023-05-21T07:54:18.383Z,101427.16
2023-05-21T07:56:47.572Z,101432.55
2023-05-21T07:59:29.322Z,101429.20
2023-05-21T08:01:58.111Z,101433.67
2023-05-21T08:04:27.440Z,101432.39
2023-05-21T08:06:57.030Z,101430.77
2023-05-21T08:09:25.849Z,101429.33
2023-05-21T08:11:54.804Z,101430.92
2023-05-21T08:14:23.493Z,101429.16
2023-05-21T08:16:52.421Z,101436.16
2023-05-21T08:19:21.661Z,101430.40
2023-05-21T08:21:52.744Z,101424.52
2023-05-21T08:24:22.336Z,101425.15
2023-05-21T08:26:51.470Z,101425.50
2023-05-21T08:29:20.314Z,101422.13
2023-05-21T08:31:49.388Z,101421.02
2023-05-21T08:34:22.003Z,101423.15
2023-05-21T08:37:02.288Z,101414.00
2023-05-21T08:39:53.658Z,101423.20
2023-05-21T08:42:37.677Z,101419.59
2023-05-21T08:45:07.910Z,101414.98
2023-05-21T08:47:39.948Z,101409.23
2023-05-21T08:50:19.465Z,101406.48
2023-05-21T08:52:48.629Z,101411.48
2023-05-21T08:55:17.511Z,101411.29
2023-05-21T08:57:46.317Z,101409.81
2023-05-21T09:00:17.085Z,101408.58
2023-05-21T09:02:47.734Z,101404.37
2023-05-21T09:05:17.074Z,101400.91
2023-05-21T09:07:58.070Z,101395.68
2023-05-21T09:10:40.450Z,101389.63
2023-05-21T09:13:11.352Z,101389.73
2023-05-21T09:15:40.079Z,101396.30
2023-05-21T09:18:08.606Z,101395.88
2023-05-21T09:20:47.080Z,101394.14
2023-05-21T09:23:18.364Z,101388.52
2023-05-21T09:25:49.588Z,101389.56
2023-05-21T09:28:25.935Z,101394.36
2023-05-21T09:30:54.599Z,101393.30
2023-05-21T09:33:29.982Z,101391.64
2023-05-21T09:35:59.381Z,101394.52
2023-05-21T09:38:29.812Z,101386.45
2023-05-21T09:40:59.207Z,101380.77
2023-05-21T09:43:28.698Z,101379.52
2023-05-21T09:46:00.322Z,101382.13
2023-05-21T09:48:39.809Z,101371.65
2023-05-21T09:51:18.555Z,101375.34
2023-05-21T09:54:05.458Z,101377.98
2023-05-21T09:56:35.042Z,101364.96
2023-05-21T09:59:07.048Z,101360.19
2023-05-21T10:01:36.475Z,101359.85
2023-05-21T10:04:08.706Z,101363.16
2023-05-21T10:06:48.324Z,101353.52
2023-05-21T10:09:19.760Z,101341.92
2023-05-21T10:11:50.186Z,101347.95
2023-05-21T10:14:25.669Z,101350.07
2023-05-21T10:16:56.244Z,101351.39
2023-05-21T10:19:25.930Z,101349.39
2023-05-21T10:21:56.108Z,101351.83
2023-05-21T10:24:25.508Z,101345.89
2023-05-21T10:26:54.482Z,101343.63
2023-05-21T10:29:23.834Z,101346.36
2023-05-21T10:31:53.357Z,101347.52
2023-05-21T10:34:23.512Z,101348.11
2023-05-21T10:36:55.622Z,101345.16
2023-05-21T10:39:25.781Z,101341.67
2023-05-21T10:42:13.718Z,101334.20
2023-05-21T10:45:04.164Z,101336.30
2023-05-21T10:48:02.037Z,101335.83
2023-05-21T10:50:58.648Z,101326.57
2023-05-21T10:54:04.756Z,101328.63
2023-05-21T10:56:41.493Z,101330.91
2023-05-21T10:59:29.002Z,101324.98
2023-05-21T11:01:58.365Z,101318.09
2023-05-21T11:04:28.018Z,101316.95
2023-05-21T11:06:59.213Z,101316.71
2023-05-21T11:09:27.907Z,101312.21
2023-05-21T11:12:01.251Z,101313.70
2023-05-21T11:14:35.622Z,101320.05
2023-05-21T11:17:16.516Z,101317.98
2023-05-21T11:19:51.668Z,101323.00
2023-05-21T11:22:29.174Z,101325.83
2023-05-21T11:25:02.176Z,101326.27
2023-05-21T11:27:41.426Z,101325.29
2023-05-21T11:30:14.714Z,101324.56
2023-05-21T11:33:08.418Z,101320.86
2023-05-21T11:35:46.282Z,101314.75
2023-05-21T11:38:14.921Z,101310.73
2023-05-21T11:40:56.716Z,101308.20
2023-05-21T11:43:27.342Z,101310.23
2023-05-21T11:45:56.645Z,101311.23
2023-05-21T11:48:27.391Z,101308.61
2023-05-21T11:50:58.604Z,101310.59
2023-05-21T11:53:30.577Z,101303.08
2023-05-21T11:56:02.301Z,101300.42
2023-05-21T11:58:32.061Z,101291.03
2023-05-21T12:01:00.589Z,101293.21
2023-05-21T12:03:30.921Z,101297.15
2023-05-21T12:06:06.200Z,101299.15
2023-05-21T12:08:36.073Z,101296.27
2023-05-21T12:11:05.744Z,101290.14
2023-05-21T12:13:36.275Z,101290.38
2023-05-21T12:16:06.943Z,101283.86
2023-05-21T12:18:38.014Z,101282.78
2023-05-21T12:21:07.493Z,101290.64
2023-05-21T12:23:36.957Z,101292.80
2023-05-21T12:26:06.243Z,101289.90
2023-05-21T12:28:35.383Z,101285.78
2023-05-21T12:31:03.956Z,101285.63
2023-05-21T12:33:35.787Z,101277.45
2023-05-21T12:36:05.033Z,101271.25
2023-05-21T12:38:33.597Z,101271.19
2023-05-21T12:41:06.291Z,101275.65
2023-05-21T12:43:35.238Z,101274.30
2023-05-21T12:46:03.755Z,101272.25
2023-05-21T12:48:32.432Z,101270.17
2023-05-21T12:51:02.911Z,101269.94
2023-05-21T12:53:38.819Z,101268.19
2023-05-21T12:56:11.694Z,101261.25
2023-05-21T12:58:41.421Z,101260.73
2023-05-21T13:01:12.450Z,101258.39
2023-05-21T13:03:43.398Z,101254.01
2023-05-21T13:06:12.049Z,101260.84
2023-05-21T13:08:40.973Z,101258.12
2023-05-21T13:11:09.543Z,101259.35
2023-05-21T13:13:37.929Z,101259.75
2023-05-21T13:16:06.529Z,101255.37
2023-05-21T13:18:35.171Z,101256.02
2023-05-21T13:21:03.700Z,101252.83
2023-05-21T13:23:32.207Z,101252.20
2023-05-21T13:26:00.914Z,101248.06
2023-05-21T13:28:29.479Z,101249.58
2023-05-21T13:30:57.824Z,101249.23
2023-05-21T13:33:26.532Z,101247.21
2023-05-21T13:35:55.301Z,101246.70
2023-05-21T13:38:23.713Z,101241.50
2023-05-21T13:40:52.438Z,101242.36
2023-05-21T13:43:21.244Z,101242.63
2023-05-21T13:45:50.040Z,101241.14
2023-05-21T13:48:18.584Z,101236.91
2023-05-21T13:50:47.282Z,101235.85
2023-05-21T13:53:15.892Z,101236.33
2023-05-21T13:55:47.841Z,101235.14
2023-05-21T13:58:16.419Z,101233.11
2023-05-21T14:00:44.968Z,101227.02
2023-05-21T14:03:13.351Z,101229.46
2023-05-21T14:05:41.992Z,101225.71
2023-05-21T14:08:10.721Z,101226.91
2023-05-21T14:10:39.204Z,101226.05
2023-05-21T14:13:18.848Z,101227.64
2023-05-21T14:15:48.669Z,101225.15
2023-05-21T14:18:17.437Z,101223.64
2023-05-21T14:20:46.004Z,101221.07
2023-05-21T14:23:15.202Z,101219.15
2023-05-21T14:25:44.078Z,101213.66
2023-05-21T14:28:12.935Z,101216.88
2023-05-21T14:30:41.672Z,101210.89
2023-05-21T14:33:10.345Z,101207.35
2023-05-21T14:35:39.084Z,101201.88
2023-05-21T14:38:07.584Z,101196.98
2023-05-21T14:40:36.138Z,101194.42
2023-05-21T14:43:05.874Z,101189.60
2023-05-21T14:45:36.037Z,101186.29
2023-05-21T14:48:12.034Z,101184.95
2023-05-21T14:50:41.233Z,101186.33
2023-05-21T14:53:11.337Z,101184.20
2023-05-21T14:55:40.172Z,101179.55
2023-05-21T14:58:08.990Z,101178.65
2023-05-21T15:00:38.626Z,101177.20
2023-05-21T15:03:07.241Z,101180.21
2023-05-21T15:05:36.449Z,101175.39
2023-05-21T15:08:06.291Z,101172.08
2023-05-21T15:10:35.156Z,101172.02
2023-05-21T15:13:03.988Z,101169.06
2023-05-21T15:15:32.429Z,101168.52
2023-05-21T15:18:00.829Z,101165.52
2023-05-21T15:20:29.271Z,101166.02
2023-05-21T15:23:15.393Z,101165.55
2023-05-21T15:25:46.311Z,101169.00
2023-05-21T15:28:14.694Z,101171.14
2023-05-21T15:30:43.244Z,101169.89
2023-05-21T15:33:12.027Z,101168.21
2023-05-21T15:35:41.253Z,101164.84
2023-05-21T15:38:10.120Z,101166.08
2023-05-21T15:40:42.063Z,101169.88
2023-05-21T15:43:11.062Z,101171.38
2023-05-21T15:45:39.791Z,101173.41
2023-05-21T15:48:09.101Z,101171.80
2023-05-21T15:50:38.292Z,101170.77
2023-05-21T15:53:06.732Z,101170.80
2023-05-21T15:55:35.262Z,101173.55
2023-05-21T15:58:04.396Z,101175.11
2023-05-21T16:00:32.779Z,101175.20
2023-05-21T16:03:01.313Z,101176.98
2023-05-21T16:05:30.000Z,101182.14
2023-05-21T16:07:58.600Z,101179.21
2023-05-21T16:10:27.215Z,101179.98
2023-05-21T16:12:55.746Z,101177.90
2023-05-21T16:15:24.179Z,101171.40
2023-05-21T16:17:52.819Z,101173.20
2023-05-21T16:20:22.305Z,101178.27
2023-05-21T16:22:51.510Z,101179.81
2023-05-21T16:25:20.152Z,101182.95
2023-05-21T16:27:49.112Z,101184.31
2023-05-21T16:30:17.733Z,101181.66
2023-05-21T16:32:46.301Z,101184.13
2023-05-21T16:38:54.182Z,101188.77
2023-05-21T16:41:22.962Z,101189.17
2023-05-21T16:43:54.501Z,101187.31
2023-05-21T16:46:23.047Z,101186.48
2023-05-21T16:48:51.470Z,101188.75
2023-05-21T16:51:19.903Z,101188.08
2023-05-21T16:53:48.252Z,101188.58
2023-05-21T16:56:16.929Z,101190.65
2023-05-21T16:58:45.548Z,101186.29
2023-05-21T17:01:14.238Z,101186.83
2023-05-21T17:03:43.494Z,101187.98
2023-05-21T17:06:12.311Z,101186.89
2023-05-21T17:08:42.148Z,101188.89
2023-05-21T17:11:10.845Z,101190.00
2023-05-21T17:13:39.224Z,101198.63
2023-05-21T17:16:07.877Z,101200.85
2023-05-21T17:18:36.363Z,101200.84
2023-05-21T17:21:05.030Z,101203.34
2023-05-21T17:23:33.558Z,101202.55
2023-05-21T17:26:02.465Z,101204.77
2023-05-21T17:28:30.983Z,101205.66
2023-05-21T17:30:59.355Z,101211.17
2023-05-21T17:33:28.362Z,101210.96
2023-05-21T17:35:57.255Z,101214.31
2023-05-21T17:38:25.707Z,101218.60
2023-05-21T17:40:54.438Z,101219.52
2023-05-21T17:43:22.918Z,101218.45
2023-05-21T17:45:51.263Z,101218.42
2023-05-21T17:48:19.977Z,101221.08
2023-05-21T17:50:48.557Z,101224.84
2023-05-21T17:53:18.228Z,101222.48
2023-05-21T17:55:46.725Z,101224.39
2023-05-21T17:58:15.940Z,101226.05
2023-05-21T18:00:44.553Z,101229.70
2023-05-21T18:03:13.283Z,101233.10
2023-05-21T18:05:42.145Z,101233.70
2023-05-21T18:08:10.723Z,101235.50
2023-05-21T18:10:39.311Z,101237.52
2023-05-21T18:13:07.926Z,101242.14
2023-05-21T18:15:36.584Z,101241.39
2023-05-21T18:18:05.549Z,101249.96
2023-05-21T18:20:34.793Z,101247.48
2023-05-21T18:23:03.711Z,101252.36
2023-05-21T18:25:32.136Z,101255.18
2023-05-21T18:28:00.965Z,101256.79
2023-05-21T18:30:29.722Z,101252.60
2023-05-21T18:32:58.186Z,101255.49
2023-05-21T18:35:27.815Z,101253.98
2023-05-21T18:37:56.778Z,101254.25
2023-05-21T18:40:30.399Z,101258.38
2023-05-21T18:43:00.779Z,101257.27
2023-05-21T18:45:30.311Z,101259.38
2023-05-21T18:47:59.959Z,101258.88
2023-05-21T18:50:29.341Z,101264.62
2023-05-21T18:52:58.794Z,101265.08
2023-05-21T18:55:27.910Z,101268.55
2023-05-21T18:57:57.586Z,101265.80
2023-05-21T19:00:27.132Z,101266.65
2023-05-21T19:02:56.692Z,101266.86
2023-05-21T19:05:26.060Z,101269.63
2023-05-21T19:07:57.233Z,101272.38
2023-05-21T19:10:28.143Z,101276.60
2023-05-21T19:12:57.538Z,101271.08
2023-05-21T19:15:26.221Z,101272.42
2023-05-21T19:17:54.742Z,101270.59
2023-05-21T19:20:24.878Z,101273.67
2023-05-21T19:22:54.686Z,101272.21
2023-05-21T19:25:24.743Z,101267.94
2023-05-21T19:27:54.442Z,101267.23
2023-05-21T19:30:25.138Z,101268.25
2023-05-21T19:32:54.247Z,101265.27
2023-05-21T19:35:22.849Z,101265.27
2023-05-21T19:37:51.363Z,101267.83
2023-05-21T19:40:23.169Z,101264.83
2023-05-21T19:42:52.497Z,101266.80
2023-05-21T19:45:21.757Z,101268.18
2023-05-21T19:47:50.292Z,101267.67
2023-05-21T19:50:19.359Z,101269.96
2023-05-21T19:52:47.732Z,101270.75
2023-05-21T19:55:21.178Z,101275.44
2023-05-21T19:57:49.907Z,101275.84
2023-05-21T20:00:19.800Z,101276.53
2023-05-21T20:02:48.961Z,101277.97
2023-05-21T20:05:20.662Z,101277.59
2023-05-21T20:07:50.115Z,101281.13
2023-05-21T20:10:18.700Z,101284.16
2023-05-21T20:12:47.395Z,101283.89
2023-05-21T20:15:16.791Z,101282.45
2023-05-21T20:17:45.515Z,101282.38
2023-05-21T20:20:14.060Z,101281.47
2023-05-21T20:22:42.893Z,101283.87
2023-05-21T20:25:11.392Z,101287.70
2023-05-21T20:27:40.143Z,101290.11
2023-05-21T20:30:08.991Z,101289.41
2023-05-21T20:32:37.713Z,101295.61
2023-05-21T20:35:10.152Z,101295.60
2023-05-21T20:37:38.559Z,101298.52
2023-05-21T20:40:09.371Z,101297.61
2023-05-21T20:42:38.174Z,101294.55
2023-05-21T20:45:06.944Z,101296.08
2023-05-21T20:47:36.497Z,101295.33
2023-05-21T20:50:07.921Z,101298.86
2023-05-21T20:52:36.575Z,101300.61
2023-05-21T20:55:05.767Z,101303.81
2023-05-21T20:57:34.634Z,101303.92
2023-05-21T21:00:05.141Z,101302.59
2023-05-21T21:02:33.997Z,101304.91
2023-05-21T21:05:03.727Z,101304.81
2023-05-21T21:07:33.666Z,101303.71
2023-05-21T21:10:02.132Z,101304.52
2023-05-21T21:12:32.633Z,101308.04
2023-05-21T21:15:03.768Z,101308.48
2023-05-21T21:17:32.323Z,101310.91
2023-05-21T21:20:00.849Z,101314.91
2023-05-21T21:22:29.299Z,101318.23
2023-05-21T21:24:57.816Z,101324.56
2023-05-21T21:27:26.318Z,101329.77
2023-05-21T21:29:54.684Z,101332.18
2023-05-21T21:32:23.144Z,101333.52
2023-05-21T21:34:51.659Z,101333.04
2023-05-21T21:37:20.238Z,101331.49
2023-05-21T21:39:48.921Z,101327.64
2023-05-21T21:42:17.792Z,101327.71
2023-05-21T21:44:47.445Z,101322.31
2023-05-21T21:47:16.106Z,101317.61
2023-05-21T21:49:44.688Z,101317.30
2023-05-21T21:52:15.102Z,101315.27
2023-05-21T21:54:44.137Z,101317.50
2023-05-21T21:57:12.604Z,101315.61
2023-05-21T21:59:49.137Z,101318.80
2023-05-21T22:02:22.734Z,101319.39
2023-05-21T22:04:51.594Z,101318.96
2023-05-21T22:07:20.959Z,101319.40
2023-05-21T22:09:49.466Z,101320.06
2023-05-21T22:12:17.770Z,101319.85
2023-05-21T22:14:46.612Z,101320.14
2023-05-21T22:17:18.065Z,101317.45
2023-05-21T22:19:46.456Z,101319.23
2023-05-21T22:22:26.209Z,101318.73
2023-05-21T22:24:55.007Z,101316.99
2023-05-21T22:27:23.347Z,101318.39
2023-05-21T22:29:51.686Z,101314.96
2023-05-21T22:32:20.523Z,101315.77
2023-05-21T22:34:48.837Z,101317.42
2023-05-21T22:37:18.034Z,101315.59
2023-05-21T22:39:46.699Z,101314.73
2023-05-21T22:42:15.209Z,101311.89
2023-05-21T22:44:43.932Z,101308.36
2023-05-21T22:47:12.275Z,101310.45
2023-05-21T22:49:40.917Z,101307.80
2023-05-21T22:52:41.396Z,101305.71
2023-05-21T22:55:22.293Z,101306.30
2023-05-21T22:57:51.084Z,101308.69
2023-05-21T23:00:30.624Z,101306.84
2023-05-21T23:03:04.839Z,101309.59
2023-05-21T23:05:40.899Z,101315.11
2023-05-21T23:08:12.288Z,101318.01
2023-05-21T23:10:41.112Z,101317.34
2023-05-21T23:13:12.517Z,101317.05
2023-05-21T23:15:44.099Z,101317.93
2023-05-21T23:18:12.987Z,101318.67
2023-05-21T23:20:49.021Z,101317.39
2023-05-21T23:23:21.792Z,101320.15
2023-05-21T23:25:53.676Z,101316.81
2023-05-21T23:28:22.099Z,101313.41
2023-05-21T23:30:56.850Z,101315.05
2023-05-21T23:33:25.947Z,101317.41
2023-05-21T23:35:55.723Z,101310.55
2023-05-21T23:38:28.041Z,101317.02
2023-05-21T23:41:07.864Z,101317.02
2023-05-21T23:43:39.148Z,101313.05
2023-05-21T23:46:08.765Z,101315.50
2023-05-21T23:48:39.217Z,101314.29
2023-05-21T23:51:29.341Z,101313.32
2023-05-21T23:54:09.195Z,101315.21
2023-05-21T23:56:38.043Z,101312.90
2023-05-21T23:59:07.855Z,101314.41
